createdAt,value
2019-05-29T00:01:34.353Z,9.53
2019-05-29T00:04:02.979Z,9.28
2019-05-29T00:06:31.553Z,8.73
2019-05-29T00:09:00.202Z,9.05
2019-05-29T00:11:28.890Z,10.58
2019-05-29T00:13:57.481Z,17.17
2019-05-29T00:16:26.091Z,29.82
2019-05-29T00:18:58.186Z,37.83
2019-05-29T00:21:25.397Z,35.13
2019-05-29T00:23:53.964Z,25.95
2019-05-29T00:26:22.658Z,12.18
2019-05-29T00:28:51.236Z,32.63
2019-05-29T00:31:20.400Z,31.82
2019-05-29T00:33:49.094Z,28.40
2019-05-29T00:36:17.615Z,33.48
2019-05-29T00:38:46.257Z,33.55
2019-05-29T00:41:15.109Z,16.85
2019-05-29T00:43:43.914Z,11.65
2019-05-29T00:46:13.424Z,10.15
2019-05-29T00:48:42.167Z,9.35
2019-05-29T00:51:11.000Z,10.75
2019-05-29T00:53:39.686Z,12.13
2019-05-29T00:56:08.538Z,10.18
2019-05-29T00:58:37.194Z,10.10
2019-05-29T01:01:05.831Z,8.65
2019-05-29T01:03:36.094Z,8.15
2019-05-29T01:06:04.745Z,7.83
2019-05-29T01:08:33.388Z,7.90
2019-05-29T01:11:01.928Z,7.67
2019-05-29T01:13:30.581Z,8.33
2019-05-29T01:15:59.240Z,9.90
2019-05-29T01:18:28.167Z,9.05
2019-05-29T01:20:56.721Z,9.58
2019-05-29T01:23:25.374Z,9.18
2019-05-29T01:25:54.047Z,9.53
2019-05-29T01:28:23.143Z,9.15
2019-05-29T01:30:51.798Z,8.98
2019-05-29T01:33:23.331Z,8.80
2019-05-29T01:35:51.224Z,9.48
2019-05-29T01:38:19.906Z,8.63
2019-05-29T01:40:48.545Z,9.38
2019-05-29T01:43:17.515Z,9.63
2019-05-29T01:45:46.223Z,10.35
2019-05-29T01:48:15.408Z,9.83
2019-05-29T01:50:44.084Z,9.50
2019-05-29T01:53:13.310Z,9.20
2019-05-29T01:55:41.939Z,9.33
2019-05-29T01:58:10.607Z,8.78
2019-05-29T02:00:39.291Z,9.40
2019-05-29T02:03:07.934Z,8.35
2019-05-29T02:05:36.604Z,8.28
2019-05-29T02:08:05.297Z,8.78
2019-05-29T02:10:33.941Z,8.70
2019-05-29T02:13:03.154Z,8.65
2019-05-29T02:15:33.989Z,8.80
2019-05-29T02:18:02.281Z,8.38
2019-05-29T02:20:30.964Z,8.68
2019-05-29T02:22:59.684Z,8.23
2019-05-29T02:25:28.545Z,9.15
2019-05-29T02:27:57.122Z,8.45
2019-05-29T02:30:28.518Z,8.38
2019-05-29T02:32:56.222Z,8.78
2019-05-29T02:35:26.976Z,8.93
2019-05-29T02:37:55.290Z,8.23
2019-05-29T02:40:25.933Z,8.15
2019-05-29T02:42:54.656Z,9.30
2019-05-29T02:45:26.147Z,8.13
2019-05-29T02:47:53.638Z,8.40
2019-05-29T02:50:23.916Z,7.42
2019-05-29T02:52:52.744Z,7.87
2019-05-29T02:55:22.718Z,8.18
2019-05-29T02:57:51.434Z,8.93
2019-05-29T03:00:23.444Z,8.23
2019-05-29T03:02:52.550Z,8.40
2019-05-29T03:05:22.000Z,8.58
2019-05-29T03:07:50.672Z,8.63
2019-05-29T03:10:20.128Z,8.10
2019-05-29T03:12:48.865Z,9.03
2019-05-29T03:15:18.224Z,8.45
2019-05-29T03:17:46.938Z,8.33
2019-05-29T03:20:15.572Z,8.60
2019-05-29T03:22:44.248Z,8.25
2019-05-29T03:25:12.905Z,8.38
2019-05-29T03:27:41.476Z,8.68
2019-05-29T03:30:11.840Z,8.23
2019-05-29T03:32:47.364Z,8.10
2019-05-29T03:35:12.309Z,7.90
2019-05-29T03:37:40.920Z,8.28
2019-05-29T03:40:09.679Z,8.65
2019-05-29T03:42:38.960Z,8.48
2019-05-29T03:45:08.734Z,8.10
2019-05-29T03:47:37.502Z,8.45
2019-05-29T03:50:07.754Z,7.70
2019-05-29T03:52:36.571Z,8.55
2019-05-29T03:55:08.238Z,8.53
2019-05-29T03:57:38.159Z,8.88
2019-05-29T04:00:08.845Z,8.85
2019-05-29T04:02:38.412Z,11.50
2019-05-29T04:05:08.635Z,12.73
2019-05-29T04:07:38.136Z,12.18
2019-05-29T04:10:07.523Z,12.45
2019-05-29T04:12:38.086Z,11.53
2019-05-29T04:15:06.990Z,11.75
2019-05-29T04:17:37.872Z,11.65
2019-05-29T04:20:07.337Z,10.28
2019-05-29T04:22:39.563Z,11.10
2019-05-29T04:25:08.303Z,9.00
2019-05-29T04:27:39.887Z,9.48
2019-05-29T04:30:09.021Z,10.50
2019-05-29T04:32:38.663Z,10.23
2019-05-29T04:35:07.500Z,11.57
2019-05-29T04:37:36.972Z,12.75
2019-05-29T04:40:07.450Z,14.60
2019-05-29T04:42:37.647Z,14.93
2019-05-29T04:45:08.340Z,15.95
2019-05-29T04:47:37.386Z,16.40
2019-05-29T04:50:07.678Z,13.95
2019-05-29T04:52:37.861Z,14.75
2019-05-29T04:55:06.950Z,13.88
2019-05-29T04:57:35.617Z,15.00
2019-05-29T05:00:07.771Z,16.20
2019-05-29T05:02:37.274Z,14.35
2019-05-29T05:05:07.586Z,13.88
2019-05-29T05:07:37.352Z,14.00
2019-05-29T05:10:07.216Z,13.05
2019-05-29T05:12:37.830Z,10.95
2019-05-29T05:15:07.496Z,7.85
2019-05-29T05:17:36.226Z,7.30
2019-05-29T05:20:05.848Z,7.95
2019-05-29T05:22:34.498Z,8.08
2019-05-29T05:25:03.663Z,8.33
2019-05-29T05:27:32.310Z,7.47
2019-05-29T05:30:00.973Z,7.12
2019-05-29T05:32:30.570Z,8.13
2019-05-29T05:34:59.237Z,9.58
2019-05-29T05:37:27.886Z,7.62
2019-05-29T05:39:56.576Z,8.75
2019-05-29T05:42:25.232Z,6.78
2019-05-29T05:44:53.885Z,7.22
2019-05-29T05:47:22.586Z,5.72
2019-05-29T05:49:51.258Z,6.60
2019-05-29T05:52:19.989Z,6.00
2019-05-29T05:54:48.767Z,6.33
2019-05-29T05:57:17.466Z,6.80
2019-05-29T05:59:46.101Z,6.70
2019-05-29T06:02:20.012Z,7.08
2019-05-29T06:04:48.815Z,6.42
2019-05-29T06:07:17.487Z,6.70
2019-05-29T06:09:46.056Z,6.75
2019-05-29T06:12:14.759Z,6.65
2019-05-29T06:14:43.401Z,6.55
2019-05-29T06:17:12.129Z,7.00
2019-05-29T06:19:41.170Z,7.08
2019-05-29T06:22:09.947Z,6.83
2019-05-29T06:24:38.887Z,7.10
2019-05-29T06:27:07.568Z,6.62
2019-05-29T06:29:37.132Z,6.75
2019-05-29T06:32:05.812Z,6.58
2019-05-29T06:34:35.680Z,7.12
2019-05-29T06:37:04.350Z,6.40
2019-05-29T06:39:33.497Z,7.12
2019-05-29T06:42:02.170Z,6.70
2019-05-29T06:44:30.824Z,7.12
2019-05-29T06:46:59.469Z,6.40
2019-05-29T06:49:28.162Z,6.25
2019-05-29T06:51:56.806Z,6.95
2019-05-29T06:54:25.482Z,6.45
2019-05-29T06:56:54.178Z,5.95
2019-05-29T06:59:22.829Z,6.25
2019-05-29T07:01:51.606Z,6.72
2019-05-29T07:04:20.260Z,6.62
2019-05-29T07:06:49.101Z,6.65
2019-05-29T07:09:17.858Z,5.78
2019-05-29T07:11:47.541Z,5.75
2019-05-29T07:14:16.334Z,6.28
2019-05-29T07:16:54.875Z,5.60
2019-05-29T07:19:29.364Z,7.00
2019-05-29T07:21:52.185Z,6.28
2019-05-29T07:24:20.901Z,5.42
2019-05-29T07:26:49.591Z,5.67
2019-05-29T07:29:18.308Z,5.80
2019-05-29T07:31:47.330Z,5.72
2019-05-29T07:34:16.034Z,5.90
2019-05-29T07:36:45.988Z,5.75
2019-05-29T07:39:14.765Z,5.62
2019-05-29T07:41:43.711Z,4.83
2019-05-29T07:44:12.532Z,5.35
2019-05-29T07:46:42.261Z,4.50
2019-05-29T07:49:11.039Z,5.08
2019-05-29T07:51:40.503Z,5.45
2019-05-29T07:54:09.343Z,4.67
2019-05-29T07:56:38.363Z,5.83
2019-05-29T07:59:07.134Z,4.85
2019-05-29T08:01:35.795Z,3.72
2019-05-29T08:04:04.433Z,4.45
2019-05-29T08:06:33.115Z,4.10
2019-05-29T08:09:01.789Z,5.42
2019-05-29T08:11:30.471Z,4.45
2019-05-29T08:13:59.151Z,4.75
2019-05-29T08:16:27.870Z,4.10
2019-05-29T08:18:56.540Z,3.80
2019-05-29T08:21:25.294Z,4.35
2019-05-29T08:23:53.914Z,5.53
2019-05-29T08:26:22.653Z,4.67
2019-05-29T08:28:51.432Z,3.80
2019-05-29T08:31:20.085Z,3.80
2019-05-29T08:33:49.023Z,3.72
2019-05-29T08:36:17.720Z,4.15
2019-05-29T08:38:47.408Z,3.67
2019-05-29T08:41:16.111Z,4.33
2019-05-29T08:43:45.403Z,4.15
2019-05-29T08:46:15.226Z,4.67
2019-05-29T08:48:43.904Z,4.80
2019-05-29T08:51:12.628Z,4.28
2019-05-29T08:53:42.544Z,4.45
2019-05-29T08:56:11.569Z,4.37
2019-05-29T08:58:42.786Z,4.37
2019-05-29T09:01:11.702Z,3.90
2019-05-29T09:03:40.391Z,3.72
2019-05-29T09:06:11.519Z,3.62
2019-05-29T09:08:39.483Z,3.33
2019-05-29T09:11:08.139Z,4.33
2019-05-29T09:13:36.842Z,4.00
2019-05-29T09:16:05.489Z,3.55
2019-05-29T09:18:34.249Z,2.67
2019-05-29T09:21:04.248Z,2.90
2019-05-29T09:23:33.246Z,2.47
2019-05-29T09:26:14.285Z,2.70
2019-05-29T09:28:33.225Z,2.67
2019-05-29T09:31:01.808Z,2.40
2019-05-29T09:33:30.495Z,3.10
2019-05-29T09:35:59.334Z,3.02
2019-05-29T09:38:28.013Z,2.80
2019-05-29T09:40:56.694Z,2.77
2019-05-29T09:43:29.995Z,2.92
2019-05-29T09:45:55.878Z,3.17
2019-05-29T09:48:27.470Z,2.83
2019-05-29T09:50:55.044Z,3.00
2019-05-29T09:53:23.796Z,2.98
2019-05-29T09:55:54.171Z,2.90
2019-05-29T09:58:22.993Z,2.80
2019-05-29T10:01:09.558Z,2.83
2019-05-29T10:03:25.019Z,2.33
2019-05-29T10:05:57.286Z,2.40
2019-05-29T10:08:26.243Z,2.50
2019-05-29T10:11:02.669Z,2.75
2019-05-29T10:13:25.615Z,2.70
2019-05-29T10:15:55.951Z,3.30
2019-05-29T10:18:31.904Z,3.10
2019-05-29T10:20:56.503Z,2.87
2019-05-29T10:23:25.779Z,3.05
2019-05-29T10:25:56.406Z,3.00
2019-05-29T10:28:48.343Z,3.45
2019-05-29T10:31:03.106Z,2.33
2019-05-29T10:33:28.990Z,2.72
2019-05-29T10:38:48.652Z,2.37
2019-05-29T10:41:20.357Z,2.92
2019-05-29T10:43:54.194Z,2.33
2019-05-29T10:46:22.891Z,2.30
2019-05-29T10:48:54.205Z,2.20
2019-05-29T10:51:22.105Z,2.35
2019-05-29T10:53:53.098Z,2.72
2019-05-29T10:56:21.646Z,2.47
2019-05-29T10:58:56.203Z,2.60
2019-05-29T11:01:20.878Z,2.65
2019-05-29T11:03:52.149Z,3.17
2019-05-29T11:06:20.687Z,2.62
2019-05-29T11:08:49.996Z,2.50
2019-05-29T11:11:18.827Z,2.42
2019-05-29T11:13:48.645Z,2.47
2019-05-29T11:16:17.393Z,2.50
2019-05-29T11:18:47.371Z,2.47
2019-05-29T11:21:16.464Z,2.70
2019-05-29T11:23:45.113Z,2.50
2019-05-29T11:26:13.797Z,2.25
2019-05-29T11:28:42.505Z,2.98
2019-05-29T11:31:11.241Z,2.98
2019-05-29T11:33:40.101Z,2.90
2019-05-29T11:36:12.887Z,3.27
2019-05-29T11:38:39.270Z,2.80
2019-05-29T11:41:25.146Z,2.90
2019-05-29T11:43:38.765Z,2.75
2019-05-29T11:46:07.450Z,2.05
2019-05-29T11:48:36.127Z,2.30
2019-05-29T11:51:04.816Z,2.45
2019-05-29T11:53:33.510Z,3.27
2019-05-29T11:56:02.230Z,1.82
2019-05-29T11:58:31.871Z,2.08
2019-05-29T12:01:01.282Z,1.55
2019-05-29T12:03:29.990Z,2.20
2019-05-29T12:05:59.420Z,1.80
2019-05-29T12:08:30.828Z,2.05
2019-05-29T12:10:59.535Z,1.77
2019-05-29T12:13:28.352Z,2.17
2019-05-29T12:15:57.716Z,1.70
2019-05-29T12:18:26.449Z,2.02
2019-05-29T12:20:56.246Z,1.92
2019-05-29T12:23:27.041Z,2.00
2019-05-29T12:26:16.666Z,2.12
2019-05-29T12:28:25.708Z,2.40
2019-05-29T12:30:55.178Z,2.47
2019-05-29T12:33:23.964Z,1.85
2019-05-29T12:36:01.287Z,1.80
2019-05-29T12:38:29.922Z,1.57
2019-05-29T12:40:59.821Z,2.30
2019-05-29T12:43:28.556Z,2.80
2019-05-29T12:45:57.802Z,2.08
2019-05-29T12:48:26.559Z,2.05
2019-05-29T12:50:56.068Z,2.25
2019-05-29T12:53:30.112Z,2.45
2019-05-29T12:55:56.102Z,2.20
2019-05-29T12:58:24.866Z,2.02
2019-05-29T13:00:54.482Z,2.02
2019-05-29T13:03:23.255Z,2.25
2019-05-29T13:05:52.048Z,2.27
2019-05-29T13:08:20.713Z,2.20
2019-05-29T13:10:49.414Z,3.00
2019-05-29T13:13:18.299Z,2.83
2019-05-29T13:15:46.945Z,2.62
2019-05-29T13:18:15.577Z,2.15
2019-05-29T13:20:44.350Z,1.85
2019-05-29T13:23:13.154Z,2.40
2019-05-29T13:25:41.861Z,2.50
2019-05-29T13:28:10.534Z,2.22
2019-05-29T13:30:39.280Z,2.20
2019-05-29T13:33:09.038Z,2.15
2019-05-29T13:35:37.882Z,2.30
2019-05-29T13:38:07.368Z,2.00
2019-05-29T13:40:36.267Z,2.52
2019-05-29T13:43:13.968Z,1.65
2019-05-29T13:45:35.683Z,2.02
2019-05-29T13:48:05.428Z,2.40
2019-05-29T13:50:34.213Z,1.70
2019-05-29T13:53:03.542Z,1.92
2019-05-29T13:55:32.263Z,1.45
2019-05-29T13:58:01.668Z,1.85
2019-05-29T14:00:34.465Z,1.95
2019-05-29T14:03:02.469Z,1.90
2019-05-29T14:05:31.420Z,2.20
2019-05-29T14:08:00.611Z,1.98
2019-05-29T14:10:29.314Z,2.30
2019-05-29T14:12:58.924Z,2.00
2019-05-29T14:15:27.674Z,2.02
2019-05-29T14:17:56.331Z,1.92
2019-05-29T14:20:26.191Z,1.95
2019-05-29T14:22:54.941Z,1.90
2019-05-29T14:25:23.571Z,2.00
2019-05-29T14:27:52.288Z,3.27
2019-05-29T14:30:20.937Z,2.35
2019-05-29T14:32:49.643Z,1.87
2019-05-29T14:35:18.458Z,3.30
2019-05-29T14:37:47.120Z,2.52
2019-05-29T14:40:17.019Z,2.20
2019-05-29T14:42:45.756Z,2.05
2019-05-29T14:45:15.017Z,2.40
2019-05-29T14:47:43.680Z,2.47
2019-05-29T14:50:13.367Z,1.80
2019-05-29T14:52:42.168Z,2.37
2019-05-29T14:55:17.418Z,2.70
2019-05-29T14:57:41.530Z,2.02
2019-05-29T15:00:23.141Z,2.52
2019-05-29T15:02:42.859Z,2.50
2019-05-29T15:05:12.368Z,2.30
2019-05-29T15:07:41.996Z,2.62
2019-05-29T15:10:24.006Z,2.42
2019-05-29T15:12:41.665Z,2.17
2019-05-29T15:15:11.895Z,2.40
2019-05-29T15:17:41.289Z,2.60
2019-05-29T15:20:12.602Z,3.12
2019-05-29T15:22:40.833Z,2.72
2019-05-29T15:25:18.113Z,2.80
2019-05-29T15:27:40.413Z,3.40
2019-05-29T15:30:11.362Z,3.75
2019-05-29T15:32:40.788Z,3.40
2019-05-29T15:35:14.447Z,3.08
2019-05-29T15:37:41.242Z,2.67
2019-05-29T15:40:11.020Z,2.77
2019-05-29T15:42:39.821Z,3.00
2019-05-29T15:45:10.056Z,2.85
2019-05-29T15:47:38.719Z,2.20
2019-05-29T15:50:13.519Z,1.50
2019-05-29T15:52:42.673Z,1.65
2019-05-29T15:55:27.472Z,2.60
2019-05-29T15:57:42.124Z,1.70
2019-05-29T16:00:13.592Z,1.30
2019-05-29T16:02:42.434Z,2.08
2019-05-29T16:05:13.138Z,2.08
2019-05-29T16:07:41.913Z,1.32
2019-05-29T16:10:14.799Z,1.70
2019-05-29T16:12:43.019Z,1.42
2019-05-29T16:15:13.269Z,1.20
2019-05-29T16:17:42.048Z,1.50
2019-05-29T16:20:12.328Z,1.50
2019-05-29T16:22:42.041Z,1.35
2019-05-29T16:25:11.183Z,1.60
2019-05-29T16:27:39.972Z,1.47
2019-05-29T16:30:09.521Z,1.47
2019-05-29T16:32:38.297Z,1.30
2019-05-29T16:35:07.495Z,1.17
2019-05-29T16:37:36.128Z,1.60
2019-05-29T16:40:09.681Z,1.70
2019-05-29T16:42:38.585Z,1.50
2019-05-29T16:45:09.677Z,2.05
2019-05-29T16:47:38.514Z,1.65
2019-05-29T16:50:12.964Z,1.72
2019-05-29T16:52:41.773Z,2.00
2019-05-29T16:55:10.999Z,1.27
2019-05-29T16:57:39.747Z,1.80
2019-05-29T17:00:09.715Z,1.70
2019-05-29T17:02:39.092Z,1.50
2019-05-29T17:05:08.179Z,1.25
2019-05-29T17:07:36.942Z,2.33
2019-05-29T17:10:10.355Z,1.60
2019-05-29T17:12:39.137Z,1.60
2019-05-29T17:15:12.764Z,1.87
2019-05-29T17:17:41.508Z,1.77
2019-05-29T17:20:10.857Z,1.90
2019-05-29T17:22:39.541Z,1.95
2019-05-29T17:25:08.583Z,1.75
2019-05-29T17:27:37.277Z,2.60
2019-05-29T17:30:08.015Z,2.00
2019-05-29T17:32:36.668Z,2.65
2019-05-29T17:35:09.280Z,1.70
2019-05-29T17:37:38.176Z,1.92
2019-05-29T17:40:07.753Z,2.42
2019-05-29T17:42:36.590Z,2.05
2019-05-29T17:45:12.718Z,2.12
2019-05-29T17:47:41.949Z,2.27
2019-05-29T17:50:10.627Z,2.40
2019-05-29T17:52:39.256Z,1.95
2019-05-29T17:55:08.696Z,2.72
2019-05-29T17:57:37.437Z,3.17
2019-05-29T18:00:13.415Z,3.17
2019-05-29T18:02:51.445Z,2.80
2019-05-29T18:05:14.307Z,2.60
2019-05-29T18:07:43.147Z,3.52
2019-05-29T18:10:12.528Z,3.00
2019-05-29T18:12:41.353Z,3.20
2019-05-29T18:15:10.838Z,2.40
2019-05-29T18:17:39.498Z,2.90
2019-05-29T18:20:09.754Z,3.25
2019-05-29T18:22:39.131Z,3.05
2019-05-29T18:25:08.589Z,3.08
2019-05-29T18:27:37.232Z,2.62
2019-05-29T18:30:09.695Z,2.72
2019-05-29T18:32:52.377Z,2.67
2019-05-29T18:35:21.066Z,2.80
2019-05-29T18:37:49.723Z,3.98
2019-05-29T18:40:20.240Z,3.00
2019-05-29T18:42:49.007Z,3.20
2019-05-29T18:45:20.987Z,3.50
2019-05-29T18:47:48.465Z,3.25
2019-05-29T18:50:17.366Z,3.17
2019-05-29T18:52:45.956Z,4.12
2019-05-29T18:55:15.306Z,4.08
2019-05-29T18:57:44.603Z,2.80
2019-05-29T19:00:14.032Z,3.35
2019-05-29T19:02:47.638Z,2.77
2019-05-29T19:05:16.931Z,3.12
2019-05-29T19:07:45.667Z,3.27
2019-05-29T19:10:14.521Z,3.72
2019-05-29T19:12:43.359Z,3.85
2019-05-29T19:15:12.630Z,3.12
2019-05-29T19:17:41.303Z,3.20
2019-05-29T19:20:10.503Z,3.30
2019-05-29T19:22:39.162Z,3.60
2019-05-29T19:25:08.201Z,3.90
2019-05-29T19:27:41.318Z,3.42
2019-05-29T19:30:10.953Z,3.27
2019-05-29T19:32:39.607Z,3.60
2019-05-29T19:35:08.934Z,3.40
2019-05-29T19:37:37.570Z,3.10
2019-05-29T19:40:07.248Z,3.20
2019-05-29T19:42:35.961Z,3.20
2019-05-29T19:45:07.528Z,2.90
2019-05-29T19:47:36.171Z,2.87
2019-05-29T19:50:10.220Z,3.22
2019-05-29T19:52:37.047Z,2.95
2019-05-29T19:55:09.186Z,2.98
2019-05-29T19:57:52.492Z,3.05
2019-05-29T20:00:10.641Z,2.98
2019-05-29T20:02:39.986Z,3.27
2019-05-29T20:05:08.899Z,3.25
2019-05-29T20:07:37.766Z,3.30
2019-05-29T20:10:09.125Z,3.20
2019-05-29T20:12:38.271Z,2.90
2019-05-29T20:15:07.535Z,3.10
2019-05-29T20:17:36.324Z,3.20
2019-05-29T20:20:06.778Z,3.70
2019-05-29T20:22:36.777Z,3.33
2019-05-29T20:25:07.633Z,3.65
2019-05-29T20:27:36.494Z,3.65
2019-05-29T20:30:06.218Z,3.30
2019-05-29T20:32:34.925Z,2.77
2019-05-29T20:35:04.571Z,3.10
2019-05-29T20:37:34.064Z,2.90
2019-05-29T20:40:02.825Z,3.15
2019-05-29T20:42:32.139Z,3.20
2019-05-29T20:45:00.899Z,3.12
2019-05-29T20:47:29.597Z,3.25
2019-05-29T20:49:58.328Z,3.22
2019-05-29T20:52:27.129Z,3.20
2019-05-29T20:54:58.717Z,3.17
2019-05-29T20:57:26.512Z,2.80
2019-05-29T20:59:55.206Z,3.27
2019-05-29T21:02:23.980Z,3.17
2019-05-29T21:04:52.652Z,3.30
2019-05-29T21:07:21.301Z,3.05
2019-05-29T21:09:50.055Z,2.87
2019-05-29T21:12:18.703Z,3.00
2019-05-29T21:14:47.355Z,3.35
2019-05-29T21:17:16.028Z,3.00
2019-05-29T21:19:44.854Z,2.85
2019-05-29T21:22:13.553Z,3.05
2019-05-29T21:24:49.421Z,2.98
2019-05-29T21:27:12.699Z,2.98
2019-05-29T21:29:41.350Z,3.02
2019-05-29T21:32:10.057Z,2.98
2019-05-29T21:34:39.764Z,3.00
2019-05-29T21:37:08.464Z,2.75
2019-05-29T21:39:38.322Z,2.60
2019-05-29T21:42:07.222Z,2.77
2019-05-29T21:44:36.624Z,3.02
2019-05-29T21:47:05.357Z,3.08
2019-05-29T21:49:33.989Z,2.50
2019-05-29T21:52:02.704Z,3.25
2019-05-29T21:54:31.429Z,2.85
2019-05-29T21:57:00.083Z,2.77
2019-05-29T21:59:28.736Z,2.80
2019-05-29T22:01:57.424Z,2.62
2019-05-29T22:04:26.085Z,3.33
2019-05-29T22:06:54.726Z,2.75
2019-05-29T22:09:23.477Z,2.83
2019-05-29T22:11:52.274Z,3.02
2019-05-29T22:14:20.944Z,2.70
2019-05-29T22:16:50.884Z,2.70
2019-05-29T22:19:19.533Z,3.08
2019-05-29T22:21:48.127Z,2.92
2019-05-29T22:24:16.902Z,2.90
2019-05-29T22:26:45.631Z,2.70
2019-05-29T22:29:18.172Z,2.85
2019-05-29T22:31:44.775Z,2.92
2019-05-29T22:34:13.424Z,3.02
2019-05-29T22:36:42.074Z,3.08
2019-05-29T22:39:10.794Z,3.12
2019-05-29T22:41:39.449Z,3.00
2019-05-29T22:44:08.160Z,2.85
2019-05-29T22:46:36.867Z,2.58
2019-05-29T22:49:05.507Z,2.95
2019-05-29T22:51:34.189Z,2.98
2019-05-29T22:54:03.020Z,2.75
2019-05-29T22:56:31.672Z,2.85
2019-05-29T22:59:00.339Z,2.62
2019-05-29T23:01:29.048Z,2.70
2019-05-29T23:03:58.246Z,3.00
2019-05-29T23:06:26.924Z,2.98
2019-05-29T23:08:56.262Z,2.65
2019-05-29T23:11:24.985Z,3.12
2019-05-29T23:13:54.237Z,2.60
2019-05-29T23:16:22.931Z,2.40
2019-05-29T23:18:52.405Z,3.30
2019-05-29T23:21:21.126Z,3.17
2019-05-29T23:23:49.780Z,2.60
2019-05-29T23:26:18.434Z,2.83
2019-05-29T23:28:47.210Z,2.80
2019-05-29T23:31:15.854Z,2.67
2019-05-29T23:33:44.510Z,2.72
2019-05-29T23:36:13.201Z,3.08
2019-05-29T23:38:41.878Z,2.62
2019-05-29T23:41:10.525Z,2.50
2019-05-29T23:43:39.383Z,2.75
2019-05-29T23:46:08.043Z,2.55
2019-05-29T23:48:36.687Z,2.65
2019-05-29T23:51:05.405Z,2.80
2019-05-29T23:53:34.047Z,2.60
2019-05-29T23:56:03.890Z,3.10
2019-05-29T23:58:32.606Z,2.85
